sensor_id;sensor_type;location;lat;lon;timestamp;P1;durP1;ratioP1;P2;durP2;ratioP2
16662;SDS011;8445;51.270;9.434;2022-11-20T00:00:56;38.17;;;21.43;;
16662;SDS011;8445;51.270;9.434;2022-11-20T00:03:21;34.37;;;20.37;;
16662;SDS011;8445;51.270;9.434;2022-11-20T00:05:47;32.33;;;20.30;;
16662;SDS011;8445;51.270;9.434;2022-11-20T00:08:13;33.33;;;19.47;;
16662;SDS011;8445;51.270;9.434;2022-11-20T00:10:42;41.27;;;22.50;;
16662;SDS011;8445;51.270;9.434;2022-11-20T00:13:10;32.57;;;20.23;;
16662;SDS011;8445;51.270;9.434;2022-11-20T00:15:36;29.63;;;19.27;;
16662;SDS011;8445;51.270;9.434;2022-11-20T00:18:02;33.77;;;19.63;;
16662;SDS011;8445;51.270;9.434;2022-11-20T00:20:28;29.17;;;19.10;;
16662;SDS011;8445;51.270;9.434;2022-11-20T00:22:53;33.97;;;19.70;;
16662;SDS011;8445;51.270;9.434;2022-11-20T00:25:19;27.10;;;18.13;;
16662;SDS011;8445;51.270;9.434;2022-11-20T00:27:44;29.23;;;18.00;;
16662;SDS011;8445;51.270;9.434;2022-11-20T00:30:10;28.47;;;17.77;;
16662;SDS011;8445;51.270;9.434;2022-11-20T00:32:35;30.40;;;18.17;;
16662;SDS011;8445;51.270;9.434;2022-11-20T00:35:01;30.40;;;18.43;;
16662;SDS011;8445;51.270;9.434;2022-11-20T00:37:26;32.83;;;19.20;;
16662;SDS011;8445;51.270;9.434;2022-11-20T00:39:52;33.80;;;21.23;;
16662;SDS011;8445;51.270;9.434;2022-11-20T00:42:17;39.70;;;21.73;;
16662;SDS011;8445;51.270;9.434;2022-11-20T00:44:46;35.20;;;20.67;;
16662;SDS011;8445;51.270;9.434;2022-11-20T00:47:12;32.23;;;20.67;;
16662;SDS011;8445;51.270;9.434;2022-11-20T00:49:37;39.80;;;21.57;;
16662;SDS011;8445;51.270;9.434;2022-11-20T00:52:03;35.33;;;21.27;;
16662;SDS011;8445;51.270;9.434;2022-11-20T00:54:28;34.33;;;19.50;;
16662;SDS011;8445;51.270;9.434;2022-11-20T00:56:54;34.70;;;20.37;;
16662;SDS011;8445;51.270;9.434;2022-11-20T00:59:19;37.07;;;20.50;;
16662;SDS011;8445;51.270;9.434;2022-11-20T01:01:45;36.57;;;20.77;;
16662;SDS011;8445;51.270;9.434;2022-11-20T01:04:10;32.67;;;19.67;;
16662;SDS011;8445;51.270;9.434;2022-11-20T01:06:36;36.73;;;21.40;;
16662;SDS011;8445;51.270;9.434;2022-11-20T01:09:08;31.80;;;18.70;;
16662;SDS011;8445;51.270;9.434;2022-11-20T01:11:38;34.17;;;19.67;;
16662;SDS011;8445;51.270;9.434;2022-11-20T01:14:08;34.47;;;19.60;;
16662;SDS011;8445;51.270;9.434;2022-11-20T01:16:36;33.07;;;19.37;;
16662;SDS011;8445;51.270;9.434;2022-11-20T01:19:05;34.70;;;19.20;;
16662;SDS011;8445;51.270;9.434;2022-11-20T01:21:33;29.37;;;18.17;;
16662;SDS011;8445;51.270;9.434;2022-11-20T01:24:00;29.40;;;17.30;;
16662;SDS011;8445;51.270;9.434;2022-11-20T01:26:27;28.90;;;18.07;;
16662;SDS011;8445;51.270;9.434;2022-11-20T01:28:54;29.37;;;19.13;;
16662;SDS011;8445;51.270;9.434;2022-11-20T01:33:52;29.83;;;17.67;;
16662;SDS011;8445;51.270;9.434;2022-11-20T01:36:19;27.17;;;18.00;;
16662;SDS011;8445;51.270;9.434;2022-11-20T01:38:46;32.90;;;18.03;;
16662;SDS011;8445;51.270;9.434;2022-11-20T01:41:13;29.53;;;17.70;;
16662;SDS011;8445;51.270;9.434;2022-11-20T01:43:59;27.63;;;17.93;;
16662;SDS011;8445;51.270;9.434;2022-11-20T01:46:25;29.87;;;18.80;;
16662;SDS011;8445;51.270;9.434;2022-11-20T01:51:44;33.23;;;19.10;;
16662;SDS011;8445;51.270;9.434;2022-11-20T01:54:15;29.70;;;18.97;;
16662;SDS011;8445;51.270;9.434;2022-11-20T01:56:44;31.43;;;18.40;;
16662;SDS011;8445;51.270;9.434;2022-11-20T01:59:13;27.10;;;17.83;;
16662;SDS011;8445;51.270;9.434;2022-11-20T02:01:43;30.33;;;18.57;;
16662;SDS011;8445;51.270;9.434;2022-11-20T02:04:08;30.93;;;19.30;;
16662;SDS011;8445;51.270;9.434;2022-11-20T02:06:46;30.07;;;18.27;;
16662;SDS011;8445;51.270;9.434;2022-11-20T02:09:15;29.40;;;17.90;;
16662;SDS011;8445;51.270;9.434;2022-11-20T02:11:41;28.40;;;17.33;;
16662;SDS011;8445;51.270;9.434;2022-11-20T02:14:08;28.93;;;18.10;;
16662;SDS011;8445;51.270;9.434;2022-11-20T02:16:39;28.77;;;16.57;;
16662;SDS011;8445;51.270;9.434;2022-11-20T02:19:27;28.10;;;16.17;;
16662;SDS011;8445;51.270;9.434;2022-11-20T02:24:33;32.43;;;18.47;;
16662;SDS011;8445;51.270;9.434;2022-11-20T02:27:03;28.90;;;19.47;;
16662;SDS011;8445;51.270;9.434;2022-11-20T02:29:34;32.60;;;20.20;;
16662;SDS011;8445;51.270;9.434;2022-11-20T02:32:03;33.73;;;18.80;;
16662;SDS011;8445;51.270;9.434;2022-11-20T02:34:29;33.73;;;20.27;;
16662;SDS011;8445;51.270;9.434;2022-11-20T02:36:54;29.10;;;19.27;;
16662;SDS011;8445;51.270;9.434;2022-11-20T02:39:22;29.43;;;19.37;;
16662;SDS011;8445;51.270;9.434;2022-11-20T02:41:50;33.60;;;18.67;;
16662;SDS011;8445;51.270;9.434;2022-11-20T02:44:18;29.70;;;18.23;;
16662;SDS011;8445;51.270;9.434;2022-11-20T02:46:43;31.30;;;19.90;;
16662;SDS011;8445;51.270;9.434;2022-11-20T02:49:09;29.50;;;17.83;;
16662;SDS011;8445;51.270;9.434;2022-11-20T02:51:34;28.53;;;18.17;;
16662;SDS011;8445;51.270;9.434;2022-11-20T02:53:59;33.97;;;18.40;;
16662;SDS011;8445;51.270;9.434;2022-11-20T02:56:25;32.53;;;18.43;;
16662;SDS011;8445;51.270;9.434;2022-11-20T02:58:51;36.00;;;19.27;;
16662;SDS011;8445;51.270;9.434;2022-11-20T03:01:17;31.20;;;17.37;;
16662;SDS011;8445;51.270;9.434;2022-11-20T03:03:43;32.00;;;18.73;;
16662;SDS011;8445;51.270;9.434;2022-11-20T03:06:10;28.80;;;18.07;;
16662;SDS011;8445;51.270;9.434;2022-11-20T03:08:36;29.97;;;17.90;;
16662;SDS011;8445;51.270;9.434;2022-11-20T03:11:02;31.90;;;18.57;;
16662;SDS011;8445;51.270;9.434;2022-11-20T03:13:30;27.80;;;17.73;;
16662;SDS011;8445;51.270;9.434;2022-11-20T03:16:09;31.33;;;17.80;;
16662;SDS011;8445;51.270;9.434;2022-11-20T03:18:40;28.37;;;17.43;;
16662;SDS011;8445;51.270;9.434;2022-11-20T03:21:08;33.20;;;18.70;;
16662;SDS011;8445;51.270;9.434;2022-11-20T03:23:35;31.50;;;19.13;;
16662;SDS011;8445;51.270;9.434;2022-11-20T03:28:36;31.70;;;18.43;;
16662;SDS011;8445;51.270;9.434;2022-11-20T03:31:20;32.67;;;18.30;;
16662;SDS011;8445;51.270;9.434;2022-11-20T03:33:48;31.60;;;19.53;;
16662;SDS011;8445;51.270;9.434;2022-11-20T03:36:15;33.57;;;19.90;;
16662;SDS011;8445;51.270;9.434;2022-11-20T03:38:42;31.73;;;19.27;;
16662;SDS011;8445;51.270;9.434;2022-11-20T03:41:08;34.87;;;19.70;;
16662;SDS011;8445;51.270;9.434;2022-11-20T03:43:35;34.20;;;19.47;;
16662;SDS011;8445;51.270;9.434;2022-11-20T03:46:02;37.77;;;20.17;;
16662;SDS011;8445;51.270;9.434;2022-11-20T03:48:28;34.83;;;20.27;;
16662;SDS011;8445;51.270;9.434;2022-11-20T03:51:06;34.27;;;20.70;;
16662;SDS011;8445;51.270;9.434;2022-11-20T03:53:50;35.80;;;21.57;;
16662;SDS011;8445;51.270;9.434;2022-11-20T03:56:18;34.87;;;19.80;;
16662;SDS011;8445;51.270;9.434;2022-11-20T03:58:47;35.80;;;19.67;;
16662;SDS011;8445;51.270;9.434;2022-11-20T04:01:13;34.33;;;20.37;;
16662;SDS011;8445;51.270;9.434;2022-11-20T04:03:41;33.97;;;20.83;;
16662;SDS011;8445;51.270;9.434;2022-11-20T04:06:12;32.20;;;19.23;;
16662;SDS011;8445;51.270;9.434;2022-11-20T04:08:42;32.00;;;19.40;;
16662;SDS011;8445;51.270;9.434;2022-11-20T04:11:17;40.90;;;21.03;;
16662;SDS011;8445;51.270;9.434;2022-11-20T04:13:47;34.57;;;19.97;;
16662;SDS011;8445;51.270;9.434;2022-11-20T04:16:18;38.30;;;21.87;;
16662;SDS011;8445;51.270;9.434;2022-11-20T04:18:43;37.10;;;21.43;;
16662;SDS011;8445;51.270;9.434;2022-11-20T04:21:09;35.23;;;21.33;;
16662;SDS011;8445;51.270;9.434;2022-11-20T04:23:35;36.47;;;22.57;;
16662;SDS011;8445;51.270;9.434;2022-11-20T04:26:03;37.50;;;22.90;;
16662;SDS011;8445;51.270;9.434;2022-11-20T04:28:33;37.90;;;22.23;;
16662;SDS011;8445;51.270;9.434;2022-11-20T04:31:05;41.90;;;23.30;;
16662;SDS011;8445;51.270;9.434;2022-11-20T04:33:33;38.40;;;22.47;;
16662;SDS011;8445;51.270;9.434;2022-11-20T04:36:03;35.83;;;22.20;;
16662;SDS011;8445;51.270;9.434;2022-11-20T04:38:30;36.20;;;21.70;;
16662;SDS011;8445;51.270;9.434;2022-11-20T04:41:00;35.77;;;21.57;;
16662;SDS011;8445;51.270;9.434;2022-11-20T04:43:26;34.13;;;20.80;;
16662;SDS011;8445;51.270;9.434;2022-11-20T04:45:53;34.33;;;20.77;;
16662;SDS011;8445;51.270;9.434;2022-11-20T04:48:19;32.60;;;19.53;;
16662;SDS011;8445;51.270;9.434;2022-11-20T04:50:44;32.10;;;20.07;;
16662;SDS011;8445;51.270;9.434;2022-11-20T04:53:10;34.03;;;20.97;;
16662;SDS011;8445;51.270;9.434;2022-11-20T04:55:35;37.57;;;20.37;;
16662;SDS011;8445;51.270;9.434;2022-11-20T04:58:01;32.30;;;20.03;;
16662;SDS011;8445;51.270;9.434;2022-11-20T05:00:26;34.23;;;19.87;;
16662;SDS011;8445;51.270;9.434;2022-11-20T05:02:52;34.40;;;20.07;;
16662;SDS011;8445;51.270;9.434;2022-11-20T05:05:18;34.50;;;20.50;;
16662;SDS011;8445;51.270;9.434;2022-11-20T05:07:46;33.50;;;20.20;;
16662;SDS011;8445;51.270;9.434;2022-11-20T05:10:16;32.97;;;19.57;;
16662;SDS011;8445;51.270;9.434;2022-11-20T05:12:42;34.00;;;20.00;;
16662;SDS011;8445;51.270;9.434;2022-11-20T05:15:09;40.57;;;20.87;;
16662;SDS011;8445;51.270;9.434;2022-11-20T05:17:34;37.17;;;19.93;;
16662;SDS011;8445;51.270;9.434;2022-11-20T05:20:00;37.43;;;19.47;;
16662;SDS011;8445;51.270;9.434;2022-11-20T05:22:26;33.30;;;19.90;;
16662;SDS011;8445;51.270;9.434;2022-11-20T05:24:53;36.27;;;20.63;;
16662;SDS011;8445;51.270;9.434;2022-11-20T05:27:19;39.97;;;21.90;;
16662;SDS011;8445;51.270;9.434;2022-11-20T05:29:45;42.43;;;21.53;;
16662;SDS011;8445;51.270;9.434;2022-11-20T05:32:10;35.83;;;19.80;;
16662;SDS011;8445;51.270;9.434;2022-11-20T05:34:36;37.37;;;20.23;;
16662;SDS011;8445;51.270;9.434;2022-11-20T05:37:02;35.30;;;20.43;;
16662;SDS011;8445;51.270;9.434;2022-11-20T05:39:27;37.37;;;19.77;;
16662;SDS011;8445;51.270;9.434;2022-11-20T05:41:53;34.97;;;20.73;;
16662;SDS011;8445;51.270;9.434;2022-11-20T05:44:39;35.03;;;19.97;;
16662;SDS011;8445;51.270;9.434;2022-11-20T05:47:04;36.63;;;20.27;;
16662;SDS011;8445;51.270;9.434;2022-11-20T05:49:30;35.93;;;20.03;;
16662;SDS011;8445;51.270;9.434;2022-11-20T05:51:56;25.90;;;17.03;;
16662;SDS011;8445;51.270;9.434;2022-11-20T05:54:22;30.27;;;19.50;;
16662;SDS011;8445;51.270;9.434;2022-11-20T05:56:47;35.47;;;20.00;;
16662;SDS011;8445;51.270;9.434;2022-11-20T05:59:13;31.37;;;19.17;;
16662;SDS011;8445;51.270;9.434;2022-11-20T06:01:38;33.30;;;19.53;;
16662;SDS011;8445;51.270;9.434;2022-11-20T06:04:03;31.77;;;18.87;;
16662;SDS011;8445;51.270;9.434;2022-11-20T06:06:29;31.27;;;18.93;;
16662;SDS011;8445;51.270;9.434;2022-11-20T06:08:54;32.20;;;19.13;;
16662;SDS011;8445;51.270;9.434;2022-11-20T06:11:20;29.33;;;17.90;;
16662;SDS011;8445;51.270;9.434;2022-11-20T06:13:46;32.73;;;18.50;;
16662;SDS011;8445;51.270;9.434;2022-11-20T06:16:14;28.27;;;17.73;;
16662;SDS011;8445;51.270;9.434;2022-11-20T06:18:42;32.70;;;19.03;;
16662;SDS011;8445;51.270;9.434;2022-11-20T06:21:12;31.30;;;17.90;;
16662;SDS011;8445;51.270;9.434;2022-11-20T06:23:45;33.13;;;18.87;;
16662;SDS011;8445;51.270;9.434;2022-11-20T06:26:15;28.83;;;17.20;;
16662;SDS011;8445;51.270;9.434;2022-11-20T06:28:42;27.07;;;17.33;;
16662;SDS011;8445;51.270;9.434;2022-11-20T06:31:09;28.70;;;18.53;;
16662;SDS011;8445;51.270;9.434;2022-11-20T06:33:36;28.03;;;17.17;;
16662;SDS011;8445;51.270;9.434;2022-11-20T06:36:02;31.63;;;18.07;;
16662;SDS011;8445;51.270;9.434;2022-11-20T06:38:29;32.43;;;18.93;;
16662;SDS011;8445;51.270;9.434;2022-11-20T06:40:54;28.40;;;16.37;;
16662;SDS011;8445;51.270;9.434;2022-11-20T06:43:20;25.23;;;16.93;;
16662;SDS011;8445;51.270;9.434;2022-11-20T06:45:51;28.63;;;17.77;;
16662;SDS011;8445;51.270;9.434;2022-11-20T06:48:17;25.03;;;16.23;;
16662;SDS011;8445;51.270;9.434;2022-11-20T06:50:43;24.87;;;16.50;;
16662;SDS011;8445;51.270;9.434;2022-11-20T06:53:08;31.00;;;17.57;;
16662;SDS011;8445;51.270;9.434;2022-11-20T06:55:34;24.53;;;15.83;;
16662;SDS011;8445;51.270;9.434;2022-11-20T06:57:59;28.17;;;16.70;;
16662;SDS011;8445;51.270;9.434;2022-11-20T07:00:24;26.03;;;16.93;;
16662;SDS011;8445;51.270;9.434;2022-11-20T07:02:50;27.33;;;16.50;;
16662;SDS011;8445;51.270;9.434;2022-11-20T07:05:16;27.40;;;17.23;;
16662;SDS011;8445;51.270;9.434;2022-11-20T07:07:42;28.63;;;17.23;;
16662;SDS011;8445;51.270;9.434;2022-11-20T07:10:07;24.87;;;16.43;;
16662;SDS011;8445;51.270;9.434;2022-11-20T07:12:33;31.83;;;18.70;;
16662;SDS011;8445;51.270;9.434;2022-11-20T07:14:59;27.33;;;17.83;;
16662;SDS011;8445;51.270;9.434;2022-11-20T07:17:24;30.50;;;17.57;;
16662;SDS011;8445;51.270;9.434;2022-11-20T07:19:50;26.83;;;17.40;;
16662;SDS011;8445;51.270;9.434;2022-11-20T07:22:15;30.30;;;17.27;;
16662;SDS011;8445;51.270;9.434;2022-11-20T07:24:40;28.10;;;16.73;;
16662;SDS011;8445;51.270;9.434;2022-11-20T07:27:06;29.50;;;18.20;;
16662;SDS011;8445;51.270;9.434;2022-11-20T07:29:31;24.93;;;16.90;;
16662;SDS011;8445;51.270;9.434;2022-11-20T07:31:57;28.80;;;17.10;;
16662;SDS011;8445;51.270;9.434;2022-11-20T07:34:22;30.07;;;17.60;;
16662;SDS011;8445;51.270;9.434;2022-11-20T07:36:48;32.83;;;18.97;;
16662;SDS011;8445;51.270;9.434;2022-11-20T07:39:13;27.03;;;18.17;;
16662;SDS011;8445;51.270;9.434;2022-11-20T07:41:39;30.33;;;18.70;;
16662;SDS011;8445;51.270;9.434;2022-11-20T07:44:04;28.40;;;18.57;;
16662;SDS011;8445;51.270;9.434;2022-11-20T07:46:30;29.77;;;18.07;;
16662;SDS011;8445;51.270;9.434;2022-11-20T07:48:55;27.77;;;17.93;;
16662;SDS011;8445;51.270;9.434;2022-11-20T07:51:21;31.33;;;18.67;;
16662;SDS011;8445;51.270;9.434;2022-11-20T07:53:46;31.20;;;18.47;;
16662;SDS011;8445;51.270;9.434;2022-11-20T07:56:12;28.43;;;17.37;;
16662;SDS011;8445;51.270;9.434;2022-11-20T07:58:39;28.97;;;17.07;;
16662;SDS011;8445;51.270;9.434;2022-11-20T08:01:07;29.43;;;18.97;;
16662;SDS011;8445;51.270;9.434;2022-11-20T08:03:33;25.17;;;16.53;;
16662;SDS011;8445;51.270;9.434;2022-11-20T08:05:59;26.00;;;17.50;;
16662;SDS011;8445;51.270;9.434;2022-11-20T08:08:28;29.70;;;17.27;;
16662;SDS011;8445;51.270;9.434;2022-11-20T08:10:56;28.57;;;17.97;;
16662;SDS011;8445;51.270;9.434;2022-11-20T08:13:42;25.17;;;16.67;;
16662;SDS011;8445;51.270;9.434;2022-11-20T08:16:27;26.10;;;17.13;;
16662;SDS011;8445;51.270;9.434;2022-11-20T08:18:53;28.03;;;17.70;;
16662;SDS011;8445;51.270;9.434;2022-11-20T08:21:18;27.13;;;16.67;;
16662;SDS011;8445;51.270;9.434;2022-11-20T08:23:44;28.40;;;16.90;;
16662;SDS011;8445;51.270;9.434;2022-11-20T08:26:09;30.27;;;17.47;;
16662;SDS011;8445;51.270;9.434;2022-11-20T08:28:35;28.17;;;17.60;;
16662;SDS011;8445;51.270;9.434;2022-11-20T08:31:00;29.03;;;16.97;;
16662;SDS011;8445;51.270;9.434;2022-11-20T08:33:27;29.33;;;17.50;;
16662;SDS011;8445;51.270;9.434;2022-11-20T08:35:53;29.90;;;17.70;;
16662;SDS011;8445;51.270;9.434;2022-11-20T08:38:32;28.17;;;17.30;;
16662;SDS011;8445;51.270;9.434;2022-11-20T08:40:58;29.67;;;17.83;;
16662;SDS011;8445;51.270;9.434;2022-11-20T08:43:43;28.13;;;17.23;;
16662;SDS011;8445;51.270;9.434;2022-11-20T08:46:08;27.10;;;16.87;;
16662;SDS011;8445;51.270;9.434;2022-11-20T08:48:34;30.63;;;17.30;;
16662;SDS011;8445;51.270;9.434;2022-11-20T08:50:59;30.80;;;18.20;;
16662;SDS011;8445;51.270;9.434;2022-11-20T08:53:25;34.17;;;17.97;;
16662;SDS011;8445;51.270;9.434;2022-11-20T08:55:51;29.70;;;17.63;;
16662;SDS011;8445;51.270;9.434;2022-11-20T08:58:17;32.90;;;19.83;;
16662;SDS011;8445;51.270;9.434;2022-11-20T09:00:42;32.87;;;18.77;;
16662;SDS011;8445;51.270;9.434;2022-11-20T09:03:08;35.07;;;19.50;;
16662;SDS011;8445;51.270;9.434;2022-11-20T09:05:33;34.37;;;19.03;;
16662;SDS011;8445;51.270;9.434;2022-11-20T09:07:59;30.60;;;18.13;;
16662;SDS011;8445;51.270;9.434;2022-11-20T09:10:25;33.00;;;20.00;;
16662;SDS011;8445;51.270;9.434;2022-11-20T09:12:53;29.00;;;18.57;;
16662;SDS011;8445;51.270;9.434;2022-11-20T09:15:23;32.17;;;19.70;;
16662;SDS011;8445;51.270;9.434;2022-11-20T09:17:53;33.73;;;18.77;;
16662;SDS011;8445;51.270;9.434;2022-11-20T09:20:19;36.57;;;18.67;;
16662;SDS011;8445;51.270;9.434;2022-11-20T09:22:45;32.43;;;18.53;;
16662;SDS011;8445;51.270;9.434;2022-11-20T09:25:11;36.50;;;19.17;;
16662;SDS011;8445;51.270;9.434;2022-11-20T09:27:36;31.13;;;18.97;;
16662;SDS011;8445;51.270;9.434;2022-11-20T09:30:02;33.57;;;19.60;;
16662;SDS011;8445;51.270;9.434;2022-11-20T09:32:29;30.90;;;19.27;;
16662;SDS011;8445;51.270;9.434;2022-11-20T09:34:54;28.87;;;17.73;;
16662;SDS011;8445;51.270;9.434;2022-11-20T09:37:19;27.57;;;18.03;;
16662;SDS011;8445;51.270;9.434;2022-11-20T09:39:45;34.87;;;19.80;;
16662;SDS011;8445;51.270;9.434;2022-11-20T09:50:42;31.50;;;18.97;;
16662;SDS011;8445;51.270;9.434;2022-11-20T09:56:06;28.37;;;18.00;;
16662;SDS011;8445;51.270;9.434;2022-11-20T09:58:38;31.60;;;18.07;;
16662;SDS011;8445;51.270;9.434;2022-11-20T10:07:02;24.83;;;16.67;;
16662;SDS011;8445;51.270;9.434;2022-11-20T10:09:31;30.00;;;17.67;;
16662;SDS011;8445;51.270;9.434;2022-11-20T10:12:09;25.30;;;16.67;;
16662;SDS011;8445;51.270;9.434;2022-11-20T10:25:38;27.70;;;17.03;;
16662;SDS011;8445;51.270;9.434;2022-11-20T10:28:16;29.00;;;18.33;;
16662;SDS011;8445;51.270;9.434;2022-11-20T10:30:54;26.87;;;17.77;;
16662;SDS011;8445;51.270;9.434;2022-11-20T10:33:42;27.73;;;17.73;;
16662;SDS011;8445;51.270;9.434;2022-11-20T10:39:21;28.80;;;17.37;;
16662;SDS011;8445;51.270;9.434;2022-11-20T10:42:00;27.77;;;17.87;;
16662;SDS011;8445;51.270;9.434;2022-11-20T10:44:27;26.83;;;16.50;;
16662;SDS011;8445;51.270;9.434;2022-11-20T10:47:13;30.27;;;18.63;;
16662;SDS011;8445;51.270;9.434;2022-11-20T10:49:41;30.63;;;18.57;;
16662;SDS011;8445;51.270;9.434;2022-11-20T10:52:21;33.83;;;19.83;;
16662;SDS011;8445;51.270;9.434;2022-11-20T10:58:07;35.50;;;21.73;;
16662;SDS011;8445;51.270;9.434;2022-11-20T11:00:38;37.20;;;22.53;;
16662;SDS011;8445;51.270;9.434;2022-11-20T11:03:23;32.77;;;21.40;;
16662;SDS011;8445;51.270;9.434;2022-11-20T11:09:01;34.97;;;22.47;;
16662;SDS011;8445;51.270;9.434;2022-11-20T11:11:36;35.63;;;21.87;;
16662;SDS011;8445;51.270;9.434;2022-11-20T11:14:06;37.53;;;23.87;;
16662;SDS011;8445;51.270;9.434;2022-11-20T11:16:33;36.27;;;23.83;;
16662;SDS011;8445;51.270;9.434;2022-11-20T11:19:14;35.87;;;23.10;;
16662;SDS011;8445;51.270;9.434;2022-11-20T11:21:45;34.37;;;21.80;;
16662;SDS011;8445;51.270;9.434;2022-11-20T11:24:22;32.70;;;19.80;;
16662;SDS011;8445;51.270;9.434;2022-11-20T11:26:57;30.83;;;20.50;;
16662;SDS011;8445;51.270;9.434;2022-11-20T11:29:24;34.97;;;20.73;;
16662;SDS011;8445;51.270;9.434;2022-11-20T11:32:06;36.00;;;21.50;;
16662;SDS011;8445;51.270;9.434;2022-11-20T11:34:39;33.17;;;20.90;;
16662;SDS011;8445;51.270;9.434;2022-11-20T11:37:05;39.20;;;21.60;;
16662;SDS011;8445;51.270;9.434;2022-11-20T11:39:40;34.03;;;21.03;;
16662;SDS011;8445;51.270;9.434;2022-11-20T11:42:07;41.13;;;23.47;;
16662;SDS011;8445;51.270;9.434;2022-11-20T11:44:38;34.87;;;23.50;;
16662;SDS011;8445;51.270;9.434;2022-11-20T11:47:42;36.80;;;23.47;;
16662;SDS011;8445;51.270;9.434;2022-11-20T11:52:47;35.10;;;21.83;;
16662;SDS011;8445;51.270;9.434;2022-11-20T11:55:34;39.53;;;24.00;;
16662;SDS011;8445;51.270;9.434;2022-11-20T12:03:59;38.40;;;24.23;;
16662;SDS011;8445;51.270;9.434;2022-11-20T12:06:42;36.67;;;22.57;;
16662;SDS011;8445;51.270;9.434;2022-11-20T12:09:10;41.57;;;23.73;;
16662;SDS011;8445;51.270;9.434;2022-11-20T12:11:49;39.17;;;24.03;;
16662;SDS011;8445;51.270;9.434;2022-11-20T12:14:42;40.70;;;24.30;;
16662;SDS011;8445;51.270;9.434;2022-11-20T12:17:12;36.83;;;23.53;;
16662;SDS011;8445;51.270;9.434;2022-11-20T12:19:39;40.20;;;23.53;;
16662;SDS011;8445;51.270;9.434;2022-11-20T12:24:39;43.87;;;26.97;;
16662;SDS011;8445;51.270;9.434;2022-11-20T12:30:00;39.97;;;25.33;;
16662;SDS011;8445;51.270;9.434;2022-11-20T12:44:47;39.93;;;24.33;;
16662;SDS011;8445;51.270;9.434;2022-11-20T12:53:39;38.00;;;22.73;;
16662;SDS011;8445;51.270;9.434;2022-11-20T13:05:39;28.67;;;16.87;;
16662;SDS011;8445;51.270;9.434;2022-11-20T13:07:44;26.93;;;16.00;;
16662;SDS011;8445;51.270;9.434;2022-11-20T13:10:31;25.67;;;16.70;;
16662;SDS011;8445;51.270;9.434;2022-11-20T13:13:12;28.07;;;17.67;;
16662;SDS011;8445;51.270;9.434;2022-11-20T13:18:38;28.23;;;16.13;;
16662;SDS011;8445;51.270;9.434;2022-11-20T13:21:17;30.57;;;16.77;;
16662;SDS011;8445;51.270;9.434;2022-11-20T13:23:45;26.83;;;17.23;;
16662;SDS011;8445;51.270;9.434;2022-11-20T13:26:20;30.77;;;18.13;;
16662;SDS011;8445;51.270;9.434;2022-11-20T13:28:58;32.50;;;18.93;;
16662;SDS011;8445;51.270;9.434;2022-11-20T13:33:59;31.43;;;18.67;;
16662;SDS011;8445;51.270;9.434;2022-11-20T13:36:28;32.23;;;18.77;;
16662;SDS011;8445;51.270;9.434;2022-11-20T13:38:55;28.53;;;17.27;;
16662;SDS011;8445;51.270;9.434;2022-11-20T13:44:15;28.27;;;17.33;;
16662;SDS011;8445;51.270;9.434;2022-11-20T13:46:49;29.17;;;15.83;;
16662;SDS011;8445;51.270;9.434;2022-11-20T13:49:20;25.10;;;16.80;;
16662;SDS011;8445;51.270;9.434;2022-11-20T13:51:51;21.47;;;14.63;;
16662;SDS011;8445;51.270;9.434;2022-11-20T13:54:49;20.23;;;13.93;;
16662;SDS011;8445;51.270;9.434;2022-11-20T14:00:33;20.10;;;13.03;;
16662;SDS011;8445;51.270;9.434;2022-11-20T14:03:32;21.00;;;13.73;;
16662;SDS011;8445;51.270;9.434;2022-11-20T14:06:01;24.67;;;14.47;;
16662;SDS011;8445;51.270;9.434;2022-11-20T14:11:05;21.67;;;13.73;;
16662;SDS011;8445;51.270;9.434;2022-11-20T14:14:46;24.67;;;15.07;;
16662;SDS011;8445;51.270;9.434;2022-11-20T14:16:42;21.57;;;12.57;;
16662;SDS011;8445;51.270;9.434;2022-11-20T14:21:49;21.33;;;14.27;;
16662;SDS011;8445;51.270;9.434;2022-11-20T14:24:21;22.97;;;14.57;;
16662;SDS011;8445;51.270;9.434;2022-11-20T14:26:49;25.37;;;15.30;;
16662;SDS011;8445;51.270;9.434;2022-11-20T14:29:17;26.07;;;16.03;;
16662;SDS011;8445;51.270;9.434;2022-11-20T14:31:45;29.20;;;16.47;;
16662;SDS011;8445;51.270;9.434;2022-11-20T14:34:18;30.23;;;16.87;;
16662;SDS011;8445;51.270;9.434;2022-11-20T14:36:46;32.03;;;17.53;;
16662;SDS011;8445;51.270;9.434;2022-11-20T14:39:31;31.03;;;17.37;;
16662;SDS011;8445;51.270;9.434;2022-11-20T14:41:59;28.50;;;18.03;;
16662;SDS011;8445;51.270;9.434;2022-11-20T14:44:26;33.40;;;19.13;;
16662;SDS011;8445;51.270;9.434;2022-11-20T14:46:56;36.40;;;20.47;;
16662;SDS011;8445;51.270;9.434;2022-11-20T14:49:23;35.63;;;20.47;;
16662;SDS011;8445;51.270;9.434;2022-11-20T14:51:59;40.70;;;22.03;;
16662;SDS011;8445;51.270;9.434;2022-11-20T14:54:57;39.63;;;22.10;;
16662;SDS011;8445;51.270;9.434;2022-11-20T14:57:33;39.07;;;21.27;;
16662;SDS011;8445;51.270;9.434;2022-11-20T15:02:40;46.20;;;22.87;;
16662;SDS011;8445;51.270;9.434;2022-11-20T15:05:07;47.63;;;23.93;;
16662;SDS011;8445;51.270;9.434;2022-11-20T15:07:34;46.27;;;23.80;;
16662;SDS011;8445;51.270;9.434;2022-11-20T15:12:40;46.33;;;24.03;;
16662;SDS011;8445;51.270;9.434;2022-11-20T15:15:14;38.20;;;22.17;;
16662;SDS011;8445;51.270;9.434;2022-11-20T15:17:54;37.40;;;21.50;;
16662;SDS011;8445;51.270;9.434;2022-11-20T15:20:20;40.57;;;22.50;;
16662;SDS011;8445;51.270;9.434;2022-11-20T15:22:49;39.40;;;22.67;;
16662;SDS011;8445;51.270;9.434;2022-11-20T15:25:15;40.60;;;21.97;;
16662;SDS011;8445;51.270;9.434;2022-11-20T15:27:42;42.67;;;23.47;;
16662;SDS011;8445;51.270;9.434;2022-11-20T15:30:27;40.07;;;22.70;;
16662;SDS011;8445;51.270;9.434;2022-11-20T15:32:53;39.77;;;22.00;;
16662;SDS011;8445;51.270;9.434;2022-11-20T15:35:21;39.97;;;22.40;;
16662;SDS011;8445;51.270;9.434;2022-11-20T15:37:48;41.80;;;22.27;;
16662;SDS011;8445;51.270;9.434;2022-11-20T15:40:18;41.20;;;22.33;;
16662;SDS011;8445;51.270;9.434;2022-11-20T15:42:43;34.03;;;21.20;;
16662;SDS011;8445;51.270;9.434;2022-11-20T15:45:30;40.80;;;20.90;;
16662;SDS011;8445;51.270;9.434;2022-11-20T15:48:11;38.47;;;21.83;;
16662;SDS011;8445;51.270;9.434;2022-11-20T15:50:43;40.90;;;22.03;;
16662;SDS011;8445;51.270;9.434;2022-11-20T15:53:17;37.23;;;22.23;;
16662;SDS011;8445;51.270;9.434;2022-11-20T15:55:43;39.30;;;22.10;;
16662;SDS011;8445;51.270;9.434;2022-11-20T15:58:09;39.93;;;23.50;;
16662;SDS011;8445;51.270;9.434;2022-11-20T16:00:36;39.43;;;23.10;;
16662;SDS011;8445;51.270;9.434;2022-11-20T16:03:01;41.73;;;25.10;;
16662;SDS011;8445;51.270;9.434;2022-11-20T16:05:30;43.20;;;23.27;;
16662;SDS011;8445;51.270;9.434;2022-11-20T16:07:56;41.70;;;24.70;;
16662;SDS011;8445;51.270;9.434;2022-11-20T16:10:22;44.80;;;23.23;;
16662;SDS011;8445;51.270;9.434;2022-11-20T16:12:48;45.77;;;24.73;;
16662;SDS011;8445;51.270;9.434;2022-11-20T16:15:33;39.47;;;23.97;;
16662;SDS011;8445;51.270;9.434;2022-11-20T16:18:11;41.87;;;22.90;;
16662;SDS011;8445;51.270;9.434;2022-11-20T16:20:38;41.73;;;23.53;;
16662;SDS011;8445;51.270;9.434;2022-11-20T16:23:04;41.93;;;23.37;;
16662;SDS011;8445;51.270;9.434;2022-11-20T16:25:31;44.50;;;24.60;;
16662;SDS011;8445;51.270;9.434;2022-11-20T16:27:57;39.00;;;23.27;;
16662;SDS011;8445;51.270;9.434;2022-11-20T16:30:22;43.07;;;24.53;;
16662;SDS011;8445;51.270;9.434;2022-11-20T16:32:48;41.10;;;23.80;;
16662;SDS011;8445;51.270;9.434;2022-11-20T16:35:13;43.80;;;25.73;;
16662;SDS011;8445;51.270;9.434;2022-11-20T16:37:39;43.80;;;24.63;;